createdAt,value
2022-10-19T00:00:51.681Z,9.80
2022-10-19T00:08:17.435Z,9.80
2022-10-19T00:10:44.332Z,9.80
2022-10-19T00:13:11.283Z,9.70
2022-10-19T00:15:40.266Z,9.60
2022-10-19T00:18:07.901Z,9.70
2022-10-19T00:20:35.785Z,9.70
2022-10-19T00:23:02.702Z,9.40
2022-10-19T00:30:24.422Z,10.10
2022-10-19T00:40:13.720Z,9.50
2022-10-19T00:45:18.063Z,9.10
2022-10-19T00:47:45.828Z,9.50
2022-10-19T00:50:15.066Z,9.40
2022-10-19T00:55:11.148Z,9.60
2022-10-19T00:57:38.166Z,9.50
2022-10-19T01:00:07.147Z,9.30
2022-10-19T01:02:34.406Z,9.40
2022-10-19T01:05:01.929Z,9.50
2022-10-19T01:07:28.833Z,9.20
2022-10-19T01:09:56.332Z,8.90
2022-10-19T01:13:00.716Z,9.20
2022-10-19T01:15:42.911Z,9.30
2022-10-19T01:18:22.198Z,9.20
2022-10-19T01:21:04.098Z,9.10
2022-10-19T01:26:27.317Z,8.90
2022-10-19T01:29:05.072Z,9.30
2022-10-19T01:32:00.126Z,8.90
2022-10-19T01:34:37.696Z,9.00
2022-10-19T01:37:19.909Z,8.90
2022-10-19T01:39:52.674Z,9.20
2022-10-19T01:42:42.219Z,9.10
2022-10-19T01:45:19.938Z,9.10
2022-10-19T01:48:02.226Z,9.30
2022-10-19T01:52:57.437Z,9.10
2022-10-19T01:55:26.433Z,8.90
2022-10-19T01:58:02.308Z,9.10
2022-10-19T02:00:31.529Z,9.30
2022-10-19T02:02:59.932Z,8.90
2022-10-19T02:05:31.416Z,8.90
2022-10-19T02:08:10.916Z,9.10
2022-10-19T02:10:39.928Z,9.10
2022-10-19T02:13:07.394Z,9.00
2022-10-19T02:15:38.158Z,9.10
2022-10-19T02:18:07.160Z,8.90
2022-10-19T02:20:35.462Z,8.90
2022-10-19T02:23:07.143Z,8.90
2022-10-19T02:25:35.132Z,8.70
2022-10-19T02:28:04.227Z,8.90
2022-10-19T02:30:31.404Z,8.90
2022-10-19T02:32:58.265Z,8.70
2022-10-19T02:37:52.402Z,8.50
2022-10-19T02:40:19.415Z,8.70
2022-10-19T02:42:52.508Z,8.90
2022-10-19T02:45:27.216Z,8.90
2022-10-19T02:48:19.621Z,8.70
2022-10-19T02:50:50.032Z,8.70
2022-10-19T02:55:45.264Z,8.50
2022-10-19T03:00:39.332Z,8.50
2022-10-19T03:05:33.455Z,8.30
2022-10-19T03:08:00.365Z,8.50
2022-10-19T03:10:27.317Z,8.20
2022-10-19T03:12:54.179Z,8.50
2022-10-19T03:17:53.979Z,8.30
2022-10-19T03:20:20.855Z,8.30
2022-10-19T03:25:15.054Z,8.90
2022-10-19T03:27:41.862Z,8.20
2022-10-19T03:30:09.044Z,8.10
2022-10-19T03:32:35.868Z,8.30
2022-10-19T03:35:02.755Z,8.20
2022-10-19T03:39:56.781Z,8.20
2022-10-19T03:42:23.712Z,8.00
2022-10-19T03:44:50.547Z,8.10
2022-10-19T03:49:44.769Z,8.10
2022-10-19T03:52:11.702Z,7.80
2022-10-19T03:54:38.637Z,8.00
2022-10-19T03:57:05.487Z,7.30
2022-10-19T04:01:59.670Z,7.70
2022-10-19T04:09:23.273Z,7.80
2022-10-19T04:11:50.416Z,7.50
2022-10-19T04:14:27.192Z,7.90
2022-10-19T04:17:01.595Z,7.50
2022-10-19T04:21:55.765Z,7.20
2022-10-19T04:24:22.947Z,7.70
2022-10-19T04:26:54.641Z,7.70
2022-10-19T04:29:26.491Z,7.50
2022-10-19T04:31:56.557Z,6.50
2022-10-19T04:36:52.716Z,7.40
2022-10-19T04:39:19.579Z,7.30
2022-10-19T04:44:13.665Z,7.70
2022-10-19T04:51:35.469Z,7.00
2022-10-19T04:54:03.496Z,7.20
2022-10-19T04:56:32.537Z,7.00
2022-10-19T04:59:00.602Z,7.00
2022-10-19T05:01:29.540Z,7.10
2022-10-19T05:04:02.384Z,6.80
2022-10-19T05:06:30.734Z,7.30
2022-10-19T05:08:58.069Z,6.80
2022-10-19T05:11:25.114Z,6.80
2022-10-19T05:13:52.186Z,6.80
2022-10-19T05:16:20.820Z,7.00
2022-10-19T05:18:52.071Z,6.90
2022-10-19T05:21:20.957Z,7.10
2022-10-19T05:23:50.732Z,7.00
2022-10-19T05:26:19.755Z,7.00
2022-10-19T05:28:51.326Z,6.90
2022-10-19T05:31:20.341Z,7.00
2022-10-19T05:33:47.557Z,7.10
2022-10-19T05:36:14.578Z,6.70
2022-10-19T05:38:42.069Z,7.20
2022-10-19T05:41:09.175Z,6.90
2022-10-19T05:43:36.242Z,7.50
2022-10-19T05:46:19.491Z,7.10
2022-10-19T05:48:47.678Z,6.90
2022-10-19T05:51:17.889Z,7.00
2022-10-19T05:53:45.354Z,7.00
2022-10-19T05:56:31.947Z,6.80
2022-10-19T05:59:01.941Z,6.70
2022-10-19T06:01:30.265Z,6.90
2022-10-19T06:03:58.729Z,6.40
2022-10-19T06:06:26.847Z,6.70
2022-10-19T06:08:55.703Z,6.90
2022-10-19T06:11:35.173Z,6.40
2022-10-19T06:14:04.801Z,6.50
2022-10-19T06:16:32.505Z,6.70
2022-10-19T06:18:59.922Z,6.80
2022-10-19T06:21:29.769Z,6.50
2022-10-19T06:23:59.327Z,6.80
2022-10-19T06:26:26.859Z,6.90
2022-10-19T06:28:57.980Z,7.40
2022-10-19T06:31:24.830Z,7.00
2022-10-19T06:33:51.720Z,7.30
2022-10-19T06:36:21.601Z,7.70
2022-10-19T06:38:49.486Z,8.10
2022-10-19T06:41:16.869Z,7.60
2022-10-19T06:43:44.715Z,8.00
2022-10-19T06:46:20.308Z,8.00
2022-10-19T06:48:51.694Z,7.60
2022-10-19T06:51:19.071Z,7.50
2022-10-19T06:53:45.969Z,7.90
2022-10-19T06:56:12.815Z,7.50
2022-10-19T06:58:39.983Z,7.50
2022-10-19T07:01:08.038Z,7.50
2022-10-19T07:03:35.820Z,7.40
2022-10-19T07:06:05.282Z,7.30
2022-10-19T07:08:33.280Z,7.30
2022-10-19T07:11:06.251Z,7.30
2022-10-19T07:13:33.524Z,7.40
2022-10-19T07:16:16.076Z,7.30
2022-10-19T07:18:47.585Z,7.20
2022-10-19T07:21:16.582Z,7.50
2022-10-19T07:23:44.905Z,7.10
2022-10-19T07:28:40.836Z,7.00
2022-10-19T07:31:10.420Z,7.10
2022-10-19T07:33:40.294Z,7.40
2022-10-19T07:36:09.415Z,7.20
2022-10-19T07:38:37.486Z,7.70
2022-10-19T07:41:05.873Z,7.40
2022-10-19T07:43:33.272Z,7.70
2022-10-19T07:46:05.686Z,7.20
2022-10-19T07:48:33.382Z,7.80
2022-10-19T07:51:03.192Z,7.20
2022-10-19T07:53:30.055Z,8.10
2022-10-19T07:58:24.116Z,7.50
2022-10-19T08:00:50.979Z,8.10
2022-10-19T08:06:07.251Z,8.20
2022-10-19T08:08:35.028Z,8.10
2022-10-19T08:11:16.967Z,8.20
2022-10-19T08:13:44.203Z,8.60
2022-10-19T08:16:41.792Z,8.70
2022-10-19T08:19:14.631Z,8.80
2022-10-19T08:21:46.674Z,8.70
2022-10-19T08:24:15.710Z,9.00
2022-10-19T08:26:42.436Z,9.00
2022-10-19T08:29:13.613Z,8.80
2022-10-19T08:31:41.110Z,9.30
2022-10-19T08:34:08.579Z,9.30
2022-10-19T08:39:06.765Z,9.40
2022-10-19T08:41:45.625Z,9.60
2022-10-19T08:44:31.026Z,9.20
2022-10-19T08:47:35.082Z,8.80
2022-10-19T08:50:03.138Z,8.60
2022-10-19T08:52:35.749Z,8.30
2022-10-19T08:55:16.459Z,7.50
2022-10-19T08:58:12.922Z,7.20
2022-10-19T09:00:55.507Z,7.20
2022-10-19T09:04:01.825Z,7.30
2022-10-19T09:06:45.105Z,7.50
2022-10-19T09:09:14.057Z,8.40
2022-10-19T09:11:45.067Z,8.40
2022-10-19T09:14:21.004Z,8.50
2022-10-19T09:16:48.074Z,9.30
2022-10-19T09:19:33.055Z,8.10
2022-10-19T09:22:25.508Z,7.70
2022-10-19T09:24:57.681Z,7.00
2022-10-19T09:27:28.115Z,7.00
2022-10-19T09:30:02.529Z,6.70
2022-10-19T09:35:21.754Z,6.80
2022-10-19T09:37:50.695Z,6.70
2022-10-19T09:40:19.039Z,6.90
2022-10-19T09:45:30.871Z,7.00
2022-10-19T09:48:05.705Z,7.50
2022-10-19T09:50:44.024Z,8.20
2022-10-19T09:53:19.836Z,8.70
2022-10-19T09:55:53.330Z,7.90
2022-10-19T09:58:20.849Z,7.60
2022-10-19T10:00:51.158Z,7.20
2022-10-19T10:03:43.570Z,7.30
2022-10-19T10:06:16.579Z,7.00
2022-10-19T10:08:50.023Z,7.70
2022-10-19T10:11:29.040Z,7.90
2022-10-19T10:13:58.078Z,8.30
2022-10-19T10:16:30.455Z,8.10
2022-10-19T10:19:00.641Z,8.40
2022-10-19T10:21:45.562Z,8.50
2022-10-19T10:24:12.722Z,8.40
2022-10-19T10:26:43.104Z,8.50
2022-10-19T10:29:21.926Z,8.70
2022-10-19T10:31:53.539Z,8.30
2022-10-19T10:34:54.847Z,8.00
2022-10-19T10:37:30.798Z,8.20
2022-10-19T10:40:01.899Z,8.10
2022-10-19T10:42:38.139Z,9.00
2022-10-19T10:45:16.254Z,8.80
2022-10-19T10:47:48.229Z,9.00
2022-10-19T10:50:23.454Z,8.50
2022-10-19T10:53:32.089Z,8.60
2022-10-19T10:55:58.833Z,8.80
2022-10-19T10:58:39.858Z,8.80
2022-10-19T11:01:16.650Z,8.70
2022-10-19T11:03:50.892Z,8.50
2022-10-19T11:06:21.615Z,8.60
2022-10-19T11:09:11.811Z,8.80
2022-10-19T11:11:48.241Z,8.80
2022-10-19T11:14:50.567Z,8.80
2022-10-19T11:17:30.179Z,8.50
2022-10-19T11:19:57.147Z,8.60
2022-10-19T11:22:43.050Z,8.30
2022-10-19T11:25:31.214Z,8.30
2022-10-19T11:30:26.469Z,8.40
2022-10-19T11:33:12.043Z,8.20
2022-10-19T11:35:52.950Z,9.10
2022-10-19T11:38:39.710Z,8.80
2022-10-19T11:41:35.735Z,8.80
2022-10-19T11:44:26.678Z,8.30
2022-10-19T11:47:14.350Z,8.40
2022-10-19T11:50:18.961Z,8.40
2022-10-19T11:53:24.604Z,8.40
2022-10-19T11:55:58.930Z,8.10
2022-10-19T12:01:21.209Z,8.20
2022-10-19T12:03:51.087Z,8.40
2022-10-19T12:06:43.845Z,8.40
2022-10-19T12:10:06.313Z,8.40
2022-10-19T12:12:35.847Z,8.50
2022-10-19T12:15:26.323Z,8.10
2022-10-19T12:17:56.192Z,8.30
2022-10-19T12:20:29.183Z,8.50
2022-10-19T12:22:59.376Z,8.60
2022-10-19T12:25:27.027Z,8.40
2022-10-19T12:27:54.306Z,8.70
2022-10-19T12:30:23.879Z,8.30
2022-10-19T12:32:58.445Z,8.30
2022-10-19T12:35:45.496Z,8.40
2022-10-19T12:38:15.336Z,8.40
2022-10-19T12:41:05.466Z,8.70
2022-10-19T12:43:45.012Z,8.50
2022-10-19T12:46:33.225Z,8.80
2022-10-19T12:49:30.987Z,8.70
2022-10-19T12:51:59.954Z,8.60
2022-10-19T12:54:28.329Z,8.80
2022-10-19T12:56:57.274Z,9.10
2022-10-19T12:59:25.050Z,9.00
2022-10-19T13:01:53.709Z,9.00
2022-10-19T13:04:36.024Z,8.70
2022-10-19T13:07:10.971Z,8.60
2022-10-19T13:09:44.109Z,8.50
2022-10-19T13:12:21.362Z,8.30
2022-10-19T13:15:00.336Z,9.70
2022-10-19T13:17:50.792Z,8.20
2022-10-19T13:22:50.009Z,8.00
2022-10-19T13:25:19.975Z,7.90
2022-10-19T13:28:29.246Z,8.10
2022-10-19T13:31:05.965Z,7.90
2022-10-19T13:33:46.058Z,8.10
2022-10-19T13:36:14.053Z,8.10
2022-10-19T13:38:55.902Z,8.20
2022-10-19T13:41:47.059Z,8.40
2022-10-19T13:44:15.406Z,8.30
2022-10-19T13:47:21.447Z,8.30
2022-10-19T13:50:31.197Z,8.30
2022-10-19T13:53:10.312Z,8.40
2022-10-19T13:55:51.957Z,8.40
2022-10-19T13:58:30.461Z,8.20
2022-10-19T14:01:54.928Z,8.30
2022-10-19T14:04:21.869Z,8.30
2022-10-19T14:06:56.191Z,8.30
2022-10-19T14:09:54.708Z,8.20
2022-10-19T14:12:33.981Z,8.10
2022-10-19T14:15:00.956Z,8.00
2022-10-19T14:17:34.152Z,8.10
2022-10-19T14:20:02.096Z,8.10
2022-10-19T14:22:33.542Z,8.10
2022-10-19T14:25:08.322Z,8.20
2022-10-19T14:27:35.840Z,8.10
2022-10-19T14:30:04.249Z,8.10
2022-10-19T14:32:34.109Z,7.90
2022-10-19T14:35:17.900Z,7.80
2022-10-19T14:37:45.000Z,7.70
2022-10-19T14:40:30.949Z,7.70
2022-10-19T14:43:00.294Z,7.60
2022-10-19T14:45:30.732Z,7.60
2022-10-19T14:48:17.040Z,7.50
2022-10-19T14:50:49.838Z,7.50
2022-10-19T14:53:34.161Z,7.40
2022-10-19T14:56:12.208Z,7.40
2022-10-19T14:58:46.903Z,7.30
2022-10-19T15:01:16.385Z,7.30
2022-10-19T15:03:45.002Z,7.40
2022-10-19T15:06:25.714Z,7.30
2022-10-19T15:08:56.828Z,7.20
2022-10-19T15:11:31.327Z,7.20
2022-10-19T15:14:14.300Z,7.20
2022-10-19T15:16:42.180Z,7.20
2022-10-19T15:19:26.229Z,7.10
2022-10-19T15:22:13.573Z,7.10
2022-10-19T15:25:00.758Z,7.10
2022-10-19T15:27:36.587Z,7.20
2022-10-19T15:30:18.810Z,7.20
2022-10-19T15:32:48.371Z,7.20
2022-10-19T15:35:21.610Z,7.20
2022-10-19T15:37:50.313Z,7.20
2022-10-19T15:40:44.475Z,7.20
2022-10-19T15:43:30.235Z,7.20
2022-10-19T15:46:20.615Z,7.20
2022-10-19T15:48:52.417Z,7.20
2022-10-19T15:51:24.861Z,7.20
2022-10-19T15:54:03.469Z,7.30
2022-10-19T15:56:33.030Z,7.30
2022-10-19T15:59:03.474Z,7.20
2022-10-19T16:01:33.144Z,7.30
2022-10-19T16:04:01.043Z,7.30
2022-10-19T16:06:32.943Z,7.30
2022-10-19T16:09:00.462Z,7.20
2022-10-19T16:11:29.045Z,7.20
2022-10-19T16:13:55.955Z,7.20
2022-10-19T16:16:26.335Z,7.20
2022-10-19T16:18:54.267Z,7.20
2022-10-19T16:21:24.717Z,7.20
2022-10-19T16:23:51.811Z,7.20
2022-10-19T16:26:19.008Z,7.10
2022-10-19T16:28:45.931Z,7.10
2022-10-19T16:31:12.883Z,7.00
2022-10-19T16:33:39.806Z,7.10
2022-10-19T16:36:07.935Z,7.10
2022-10-19T16:38:35.674Z,7.10
2022-10-19T16:41:05.163Z,7.10
2022-10-19T16:43:32.217Z,7.00
2022-10-19T16:45:59.257Z,7.00
2022-10-19T16:48:26.761Z,6.90
2022-10-19T16:51:05.937Z,7.00
2022-10-19T16:53:34.170Z,7.00
2022-10-19T16:56:08.903Z,7.10
2022-10-19T16:58:37.301Z,7.10
2022-10-19T17:01:16.534Z,7.10
2022-10-19T17:03:47.611Z,7.20
2022-10-19T17:06:16.213Z,7.20
2022-10-19T17:11:35.728Z,7.30
2022-10-19T17:14:05.382Z,7.30
2022-10-19T17:16:35.000Z,7.40
2022-10-19T17:19:02.961Z,7.40
2022-10-19T17:21:33.000Z,7.40
2022-10-19T17:24:02.314Z,7.50
2022-10-19T17:26:35.129Z,7.50
2022-10-19T17:29:02.643Z,7.40
2022-10-19T17:31:30.112Z,7.40
2022-10-19T17:33:57.433Z,7.40
2022-10-19T17:36:27.580Z,7.40
2022-10-19T17:38:56.501Z,7.30
2022-10-19T17:41:23.643Z,7.20
2022-10-19T17:43:52.127Z,7.20
2022-10-19T17:46:22.945Z,7.20
2022-10-19T17:48:49.890Z,7.10
2022-10-19T17:51:27.349Z,7.10
2022-10-19T17:53:57.286Z,7.10
2022-10-19T17:56:24.437Z,7.00
2022-10-19T17:58:51.453Z,7.00
2022-10-19T18:01:20.214Z,6.90
2022-10-19T18:03:47.436Z,6.90
2022-10-19T18:06:19.520Z,6.90
2022-10-19T18:08:48.907Z,6.90
2022-10-19T18:11:20.282Z,6.80
2022-10-19T18:13:48.408Z,6.80
2022-10-19T18:16:21.848Z,6.80
2022-10-19T18:18:50.564Z,6.80
2022-10-19T18:21:20.460Z,6.90
2022-10-19T18:23:48.500Z,6.90
2022-10-19T18:26:19.870Z,6.90
2022-10-19T18:28:46.780Z,6.90
2022-10-19T18:31:19.599Z,6.90
2022-10-19T18:34:02.333Z,6.90
2022-10-19T18:36:30.309Z,7.00
2022-10-19T18:39:01.279Z,6.90
2022-10-19T18:41:29.732Z,7.00
2022-10-19T18:44:03.232Z,7.10
2022-10-19T18:46:31.366Z,7.10
2022-10-19T18:49:03.677Z,7.20
2022-10-19T18:51:33.841Z,7.20
2022-10-19T18:54:00.927Z,7.20
2022-10-19T18:56:29.444Z,7.20
2022-10-19T18:58:57.141Z,7.20
2022-10-19T19:01:29.146Z,7.20
2022-10-19T19:03:58.859Z,7.20
2022-10-19T19:06:29.776Z,7.20
2022-10-19T19:08:58.664Z,7.10
2022-10-19T19:11:33.002Z,7.10
2022-10-19T19:14:08.483Z,7.00
2022-10-19T19:16:37.954Z,7.00
2022-10-19T19:19:06.081Z,7.00
2022-10-19T19:21:33.260Z,7.00
2022-10-19T19:24:01.976Z,7.00
2022-10-19T19:26:31.869Z,7.00
2022-10-19T19:28:59.245Z,6.90
2022-10-19T19:31:26.712Z,6.80
2022-10-19T19:33:53.833Z,6.80
2022-10-19T19:36:21.287Z,6.70
2022-10-19T19:38:50.616Z,6.70
2022-10-19T19:41:17.758Z,6.70
2022-10-19T19:43:44.869Z,6.60
2022-10-19T19:46:15.494Z,6.60
2022-10-19T19:48:44.443Z,6.50
2022-10-19T19:51:12.669Z,6.50
2022-10-19T19:53:39.661Z,6.50
2022-10-19T19:56:08.534Z,6.50
2022-10-19T19:58:35.415Z,6.50
2022-10-19T20:01:13.541Z,6.50
2022-10-19T20:03:41.530Z,6.50
2022-10-19T20:06:09.090Z,6.50
2022-10-19T20:08:36.981Z,6.50
2022-10-19T20:11:06.871Z,6.50
2022-10-19T20:13:34.485Z,6.50
2022-10-19T20:16:14.215Z,6.40
2022-10-19T20:18:43.665Z,6.40
2022-10-19T20:21:10.628Z,6.30
2022-10-19T20:23:38.617Z,6.20
2022-10-19T20:26:05.783Z,6.10
2022-10-19T20:28:33.360Z,6.00
2022-10-19T20:31:06.377Z,5.90
2022-10-19T20:33:35.371Z,5.90
2022-10-19T20:36:12.139Z,5.80
2022-10-19T20:38:39.962Z,5.70
2022-10-19T20:41:09.001Z,5.60
2022-10-19T20:43:37.563Z,5.50
2022-10-19T20:46:12.934Z,5.40
2022-10-19T20:48:40.447Z,5.30
2022-10-19T20:51:13.301Z,5.30
2022-10-19T20:53:40.492Z,5.30
2022-10-19T20:56:09.384Z,5.20
2022-10-19T20:58:38.810Z,5.10
2022-10-19T21:01:07.605Z,5.10
2022-10-19T21:03:34.459Z,5.10
2022-10-19T21:06:08.937Z,5.00
2022-10-19T21:08:37.305Z,5.00
2022-10-19T21:11:21.906Z,4.90
2022-10-19T21:13:52.564Z,4.90
2022-10-19T21:16:21.397Z,4.80
2022-10-19T21:18:49.540Z,4.80
2022-10-19T21:21:23.150Z,4.90
2022-10-19T21:23:53.890Z,4.90
2022-10-19T21:26:21.213Z,5.00
2022-10-19T21:28:50.542Z,5.10
2022-10-19T21:31:18.095Z,5.20
2022-10-19T21:33:45.460Z,5.30
2022-10-19T21:36:13.900Z,5.40
2022-10-19T21:38:41.762Z,5.50
2022-10-19T21:41:12.577Z,5.60
2022-10-19T21:43:39.709Z,5.60
2022-10-19T21:46:12.191Z,5.60
2022-10-19T21:48:39.418Z,5.60
2022-10-19T21:51:44.042Z,5.60
2022-10-19T21:54:16.633Z,5.50
2022-10-19T21:56:43.875Z,5.50
2022-10-19T21:59:12.203Z,5.50
2022-10-19T22:01:41.287Z,5.40
2022-10-19T22:04:12.832Z,5.30
2022-10-19T22:06:39.706Z,5.20
2022-10-19T22:09:08.825Z,5.10
2022-10-19T22:11:35.864Z,5.10
2022-10-19T22:14:03.902Z,4.90
2022-10-19T22:16:32.063Z,4.80
2022-10-19T22:18:59.525Z,4.80
2022-10-19T22:21:30.045Z,4.70
2022-10-19T22:24:01.780Z,4.60
2022-10-19T22:26:34.374Z,4.50
2022-10-19T22:29:02.167Z,4.50
2022-10-19T22:31:30.400Z,4.40
2022-10-19T22:33:59.355Z,4.30
2022-10-19T22:36:26.172Z,4.30
2022-10-19T22:38:53.038Z,4.30
2022-10-19T22:41:19.890Z,4.20
2022-10-19T22:43:46.751Z,4.20
2022-10-19T22:46:13.593Z,4.10
2022-10-19T22:48:40.398Z,4.10
2022-10-19T22:51:07.362Z,4.20
2022-10-19T22:53:34.288Z,4.20
2022-10-19T22:56:01.804Z,4.20
2022-10-19T22:58:28.640Z,4.10
2022-10-19T23:01:04.514Z,4.10
2022-10-19T23:03:31.601Z,4.10
2022-10-19T23:05:58.521Z,4.10
2022-10-19T23:08:25.419Z,4.10
2022-10-19T23:10:52.347Z,4.10
2022-10-19T23:13:19.296Z,4.10
2022-10-19T23:15:46.236Z,4.10
2022-10-19T23:18:13.493Z,4.00
2022-10-19T23:20:40.391Z,3.90
2022-10-19T23:23:07.331Z,4.00
2022-10-19T23:25:34.342Z,3.90
2022-10-19T23:28:01.347Z,3.90
2022-10-19T23:30:28.226Z,3.90
2022-10-19T23:32:55.071Z,3.90
2022-10-19T23:35:21.928Z,3.90
2022-10-19T23:37:51.381Z,3.90
2022-10-19T23:40:18.291Z,3.90
2022-10-19T23:42:45.149Z,3.90
2022-10-19T23:45:13.198Z,3.90
2022-10-19T23:51:22.074Z,3.80
2022-10-19T23:53:53.009Z,3.80
2022-10-19T23:56:28.779Z,3.80
2022-10-19T23:58:56.767Z,3.80
